createdAt,value
2023-04-21T17:25:42.906Z,8.63
2023-04-21T17:28:28.355Z,9.60
2023-04-21T17:31:16.164Z,8.75
2023-04-21T17:34:01.887Z,9.55
2023-04-21T17:36:47.323Z,9.10
2023-04-21T17:39:32.887Z,8.60
2023-04-21T17:42:18.549Z,8.95
2023-04-21T17:45:05.896Z,10.15
2023-04-21T17:47:51.554Z,8.93
2023-04-21T17:50:36.944Z,9.55
2023-04-21T17:53:22.122Z,9.13
2023-04-21T17:56:08.601Z,9.35
2023-04-21T17:58:54.527Z,9.52
2023-04-21T18:01:40.133Z,9.88
2023-04-21T18:04:27.389Z,11.05
2023-04-21T18:07:13.472Z,11.02
2023-04-21T18:09:59.206Z,10.32
2023-04-21T18:12:44.947Z,10.98
2023-04-21T18:15:30.596Z,9.50
2023-04-21T18:18:16.082Z,9.73
2023-04-21T18:21:01.768Z,10.80
2023-04-21T18:23:47.545Z,10.75
2023-04-21T18:26:33.252Z,11.70
2023-04-21T18:29:19.639Z,10.30
2023-04-21T18:32:05.517Z,10.52
2023-04-21T18:34:51.132Z,9.80
2023-04-21T18:37:36.537Z,10.80
2023-04-21T18:40:22.126Z,8.57
2023-04-21T18:43:07.918Z,10.60
2023-04-21T18:45:53.107Z,10.55
2023-04-21T18:48:38.652Z,11.10
2023-04-21T18:51:24.507Z,10.35
2023-04-21T18:54:09.965Z,9.40
2023-04-21T18:56:55.720Z,10.20
2023-04-21T18:59:41.311Z,10.00
2023-04-21T19:02:27.081Z,8.95
2023-04-21T19:05:12.975Z,9.60
2023-04-21T19:07:58.451Z,10.45
2023-04-21T19:10:44.078Z,10.00
2023-04-21T19:13:29.580Z,9.50
2023-04-21T19:16:16.727Z,8.93
2023-04-21T19:19:02.455Z,9.73
2023-04-21T19:21:50.327Z,10.02
2023-04-21T19:24:36.252Z,10.63
2023-04-21T19:27:22.086Z,10.45
2023-04-21T19:30:09.397Z,9.07
2023-04-21T19:32:55.295Z,9.65
2023-04-21T19:35:41.239Z,8.75
2023-04-21T19:38:26.844Z,8.82
2023-04-21T19:41:13.259Z,9.00
2023-04-21T19:43:58.740Z,8.85
2023-04-21T19:46:44.356Z,10.43
2023-04-21T19:49:30.167Z,8.95
2023-04-21T19:52:15.802Z,9.07
2023-04-21T19:55:01.648Z,9.13
2023-04-21T19:57:46.951Z,9.10
2023-04-21T20:00:32.408Z,8.70
2023-04-21T20:03:17.798Z,8.63
2023-04-21T20:06:05.029Z,8.43
2023-04-21T20:08:50.655Z,8.07
2023-04-21T20:11:36.598Z,8.73
2023-04-21T20:14:22.071Z,7.97
2023-04-21T20:17:07.785Z,8.80
2023-04-21T20:19:54.313Z,8.85
2023-04-21T20:22:39.866Z,9.05
2023-04-21T20:25:25.790Z,8.57
2023-04-21T20:28:11.270Z,9.00
2023-04-21T20:30:57.052Z,8.38
2023-04-21T20:33:42.562Z,10.73
2023-04-21T20:36:28.803Z,8.45
2023-04-21T20:39:14.447Z,9.63
2023-04-21T20:42:12.070Z,8.50
2023-04-21T20:45:02.465Z,8.27
2023-04-21T20:47:47.632Z,8.63
2023-04-21T20:50:33.060Z,9.35
2023-04-21T20:53:18.876Z,8.50
2023-04-21T20:56:04.413Z,8.63
2023-04-21T20:58:49.963Z,8.80
2023-04-21T21:01:39.904Z,9.52
2023-04-21T21:04:25.563Z,9.57
2023-04-21T21:07:11.350Z,9.48
2023-04-21T21:09:56.824Z,8.98
2023-04-21T21:12:43.012Z,9.55
2023-04-21T21:15:30.535Z,9.77
2023-04-21T21:18:16.107Z,9.63
2023-04-21T21:21:02.302Z,8.75
2023-04-21T21:23:47.782Z,9.77
2023-04-21T21:26:33.272Z,9.75
2023-04-21T21:29:19.078Z,9.57
2023-04-21T21:32:04.503Z,10.95
2023-04-21T21:34:52.265Z,11.00
2023-04-21T21:37:38.313Z,11.57
2023-04-21T21:40:23.994Z,10.43
2023-04-21T21:43:10.981Z,9.88
2023-04-21T21:45:56.578Z,10.80
2023-04-21T21:48:42.769Z,10.75
2023-04-21T21:51:29.065Z,11.80
2023-04-21T21:54:14.299Z,10.35
2023-04-21T21:56:59.927Z,11.63
2023-04-21T21:59:45.684Z,12.35
2023-04-21T22:02:31.336Z,12.40
2023-04-21T22:05:17.678Z,11.55
2023-04-21T22:08:04.238Z,12.32
2023-04-21T22:10:49.592Z,11.68
2023-04-21T22:13:35.161Z,11.95
2023-04-21T22:16:20.563Z,11.65
2023-04-21T22:19:06.001Z,12.10
2023-04-21T22:21:52.407Z,10.77
2023-04-21T22:24:38.321Z,11.63
2023-04-21T22:27:23.702Z,11.30
2023-04-21T22:30:09.644Z,11.68
2023-04-21T22:32:55.074Z,12.32
2023-04-21T22:35:40.671Z,11.02
2023-04-21T22:38:26.066Z,11.10
2023-04-21T22:41:11.726Z,12.30
2023-04-21T22:43:57.010Z,12.02
2023-04-21T22:46:42.855Z,13.40
2023-04-21T22:49:28.642Z,12.73
2023-04-21T22:52:14.421Z,11.90
2023-04-21T22:54:59.780Z,13.73
2023-04-21T22:57:45.377Z,12.25
2023-04-21T23:00:31.104Z,12.05
2023-04-21T23:03:16.653Z,11.73
2023-04-21T23:06:02.224Z,12.95
2023-04-21T23:08:47.612Z,12.07
2023-04-21T23:11:32.823Z,13.77
2023-04-21T23:14:18.272Z,11.93
2023-04-21T23:17:03.669Z,12.48
2023-04-21T23:19:49.552Z,12.65
2023-04-21T23:22:35.367Z,12.48
2023-04-21T23:25:20.909Z,12.52
2023-04-21T23:28:06.373Z,11.73
2023-04-21T23:30:52.112Z,11.98
2023-04-21T23:33:37.537Z,9.38
2023-04-21T23:36:22.821Z,10.73
2023-04-21T23:39:08.262Z,10.45
2023-04-21T23:41:53.666Z,10.27
2023-04-21T23:44:40.471Z,10.77
2023-04-21T23:47:25.979Z,11.23
2023-04-21T23:50:11.770Z,10.65
2023-04-21T23:52:57.264Z,9.82
2023-04-21T23:55:43.245Z,11.07
2023-04-21T23:58:28.804Z,11.65
